Flight Track Log - Related Links

Times and Time Zones

All times are in EDT time to prevent confusion due to time zone crossing. See the GJS3707 flight status page for this flight to view local times or setup timezone preferences in your user account.

Time Position Orientation Groundspeed Altitude Reporting Facility
EDT Latitude Longitude Course Direction KTS MPH feet Rate Location/Type
Thu 03:06:22 PM 43.5111 -116.0753 116° Southeast 221 254 6,900  Level Salt Lake Center
Thu 03:07:00 PM 43.6325 -115.7226 79° East  Level FlightAware Approximate
Thu 03:07:24 PM 43.4892 -115.9717 106° East 276 318 9,300  Level Salt Lake Center
Thu 03:08:00 PM 43.6584 -115.5544 78° East  Level FlightAware Approximate
Thu 03:08:26 PM 43.5094 -115.8581 76° East 293 337 11,900  Level Salt Lake Center
Thu 03:09:00 PM 43.6772 -115.3844 83° East  Level FlightAware Approximate
Thu 03:09:28 PM 43.5297 -115.7478 76° East 305 351 13,300  Level Salt Lake Center
Thu 03:10:00 PM 43.7014 -115.2210 81° East  Level FlightAware Approximate
Thu 03:10:30 PM 43.5531 -115.6103 77° East 351 404 14,400  Level Salt Lake Center
Thu 03:11:32 PM 43.5786 -115.4617 77° East 376 433 16,000 1,548 Climbing Salt Lake Center
Thu 03:12:34 PM 43.6067 -115.3053 76° East 400 460 17,600 1,500 Climbing Salt Lake Center
Thu 03:13:36 PM 43.6336 -115.1422 77° East 417 480 19,100 1,452 Climbing Salt Lake Center
Thu 03:14:38 PM 43.6606 -114.9828 77° East 423 487 20,600 1,403 Climbing Salt Lake Center
Thu 03:15:40 PM 43.6867 -114.8269 77° East 434 499 22,000 1,452 Climbing Salt Lake Center
Thu 03:16:42 PM 43.7181 -114.6433 77° East 440 506 23,600 1,306 Climbing Salt Lake Center
Thu 03:17:44 PM 43.7439 -114.4811 78° East 452 520 24,700 1,113 Climbing Salt Lake Center
Thu 03:18:46 PM 43.7758 -114.2872 77° East 463 533 25,900 1,113 Climbing Salt Lake Center
Thu 03:19:48 PM 43.8047 -114.1183 77° East 470 541 27,000 1,113 Climbing Salt Lake Center
Thu 03:20:50 PM 43.8336 -113.9186 79° East 474 545 28,200 1,016 Climbing Salt Lake Center
Thu 03:21:52 PM 43.8483 -113.7456 83° East 472 543 29,100 871 Climbing Salt Lake Center
Thu 03:22:54 PM 43.8575 -113.5350 86° East 492 566 30,000 823 Climbing Salt Lake Center
Thu 03:23:56 PM 43.8636 -113.3547 87° East 491 565 30,800 919 Climbing Salt Lake Center
Thu 03:24:58 PM 43.8747 -113.1425 86° East 493 567 31,900 1,113 Climbing Salt Lake Center
Thu 03:26:00 PM 43.8831 -112.9639 86° East 490 564 33,100 1,016 Climbing Salt Lake Center
Thu 03:27:02 PM 43.8917 -112.7575 87° East 483 556 34,000 774 Climbing Salt Lake Center
Thu 03:28:04 PM 43.9000 -112.5808 86° East 481 554 34,700 726 Climbing Salt Lake Center
Thu 03:29:06 PM 43.9092 -112.3747 86° East 482 555 35,500 726 Climbing Salt Lake Center
Thu 03:30:08 PM 43.9158 -112.1989 87° East 481 554 36,200 726 Climbing Salt Lake Center
Thu 03:31:10 PM 43.9250 -111.9950 86° East 478 550 37,000 387 Climbing Salt Lake Center
Thu 03:32:12 PM 43.9306 -111.8181 87° East 481 554 37,000  Level Salt Lake Center
Thu 03:33:14 PM 43.9375 -111.6108 87° East 484 557 37,000  Level Salt Lake Center
Thu 03:34:16 PM 43.9444 -111.4294 87° East 491 565 37,000  Level Salt Lake Center
Thu 03:35:18 PM 43.9508 -111.2169 88° East 495 570 37,000  Level Salt Lake Center
Thu 03:36:20 PM 43.9561 -111.0347 88° East 496 571 37,000  Level Salt Lake Center
Thu 03:37:22 PM 43.9639 -110.8167 87° East 507 583 37,000  Level Salt Lake Center
Thu 03:38:25 PM 43.9689 -110.6314 88° East 505 581 37,000  Level Salt Lake Center
Thu 03:39:27 PM 43.9747 -110.4450 87° East 507 583 37,000  Level Salt Lake Center
Thu 03:40:29 PM 43.9786 -110.2286 88° East 503 579 37,000  Level Salt Lake Center
Thu 03:41:31 PM 43.9831 -110.0433 88° East 503 579 37,000  Level Salt Lake Center
Thu 03:42:33 PM 43.9867 -109.8267 89° East 504 580 37,000  Level Salt Lake Center
Thu 03:43:35 PM 43.9917 -109.6389 88° East 506 582 37,000  Level Salt Lake Center
Thu 03:44:37 PM 43.9939 -109.4208 89° East 508 585 37,000  Level Salt Lake Center
Thu 03:45:39 PM 43.9958 -109.2342 89° East 506 582 37,000  Level Salt Lake Center
Thu 03:46:41 PM 43.9994 -109.0133 89° East 511 588 37,000  Level Salt Lake Center
Thu 03:47:43 PM 44.0014 -108.8253 89° East 511 588 37,000  Level Salt Lake Center
Thu 03:48:45 PM 44.0044 -108.6042 89° East 513 590 37,000  Level Salt Lake Center
Thu 03:49:47 PM 44.0044 -108.4147 90° East 514 592 37,000  Level Salt Lake Center
Thu 03:50:49 PM 44.0061 -108.2192 89° East 510 587 37,000  Level Salt Lake Center
Thu 03:51:51 PM 44.0067 -107.9983 90° East 510 587 37,000  Level Salt Lake Center
Thu 03:52:53 PM 44.0069 -107.8097 90° East 511 588 37,000  Level Salt Lake Center
Thu 03:53:55 PM 44.0081 -107.5897 90° East 511 588 37,000  Level Salt Lake Center
Thu 03:54:57 PM 44.0075 -107.4006 90° East 512 589 37,000  Level Salt Lake Center
Thu 03:55:59 PM 44.0061 -107.1972 90° East 513 590 37,000  Level Salt Lake Center
Thu 03:57:01 PM 44.0050 -106.9753 90° East 513 590 37,000  Level Salt Lake Center
Thu 03:58:03 PM 44.0047 -106.7844 90° East 516 594 37,000  Level Salt Lake Center
Thu 03:59:05 PM 44.0022 -106.5619 91° East 516 594 37,000  Level Salt Lake Center
Thu 04:00:07 PM 44.0003 -106.3728 91° East 513 590 37,000  Level Salt Lake Center
Thu 04:01:09 PM 44.0022 -106.1519 89° East 512 589 37,000  Level Salt Lake Center
Thu 04:02:11 PM 44.0031 -105.9617 90° East 513 590 37,000  Level Salt Lake Center
Thu 04:03:13 PM 44.0044 -105.7381 89° East 515 593 37,000  Level Salt Lake Center
Thu 04:04:15 PM 44.0044 -105.5492 90° East 514 592 37,000  Level Salt Lake Center
Thu 04:05:20 PM 44.0036 -105.3239 90° East 515 593 37,000  Level Denver Center
Thu 04:06:22 PM 44.0028 -105.1331 90° East 516 594 37,000  Level Denver Center
Thu 04:07:24 PM 44.0028 -104.9108 90° East 515 593 37,000  Level Denver Center
Thu 04:08:26 PM 44.0017 -104.7189 90° East 516 594 37,000  Level Denver Center
Thu 04:09:28 PM 43.9997 -104.4981 91° East 515 593 37,000  Level Denver Center
Thu 04:10:31 PM 43.9978 -104.3089 91° East 513 590 37,000  Level Denver Center
Thu 04:11:33 PM 43.9958 -104.1217 91° East 510 587 37,000  Level Denver Center
Thu 04:12:35 PM 43.9931 -103.8992 91° East 514 592 37,000  Level Denver Center
Thu 04:13:37 PM 43.9906 -103.7092 91° East 514 592 37,000  Level Denver Center
Thu 04:14:39 PM 43.9856 -103.4858 92° East 516 594 37,000  Level Denver Center
Thu 04:15:41 PM 43.9808 -103.2928 92° East 520 598 37,000  Level Denver Center
Thu 04:16:43 PM 43.9781 -103.0744 91° East 512 589 37,000  Level Denver Center
Thu 04:17:45 PM 43.9739 -102.8861 92° East 509 586 37,000  Level Denver Center
Thu 04:18:47 PM 43.9694 -102.6969 92° East 512 589 37,000  Level Denver Center
Thu 04:19:49 PM 43.9606 -102.4578 93° East 516 594 37,000  Level Denver Center
Thu 04:20:51 PM 43.9533 -102.2600 93° East 516 594 37,000  Level Denver Center
Thu 04:21:53 PM 43.9450 -102.0633 93° East 513 590 37,000  Level Denver Center
Thu 04:22:55 PM 43.9381 -101.8658 93° East 514 592 37,000  Level Denver Center
Thu 04:23:57 PM 43.9344 -101.6753 91° East 506 582 37,000  Level Denver Center
Thu 04:24:59 PM 43.9264 -101.4789 93° East 510 587 37,000  Level Denver Center
Thu 04:26:01 PM 43.9169 -101.2456 93° East 508 585 37,000  Level Denver Center
Thu 04:27:10 PM 43.9100 -101.0533 93° East 505 581 37,000  Level Minneapolis Center
Thu 04:28:12 PM 43.8994 -100.8239 94° East 502 578 37,000  Level Minneapolis Center
Thu 04:29:14 PM 43.8919 -100.6322 93° East 500 575 37,000  Level Minneapolis Center
Thu 04:30:16 PM 43.8825 -100.4381 94° East 505 581 37,000  Level Minneapolis Center
Thu 04:32:21 PM 43.8631 -100.0569 94° East 499 574 37,000  Level Minneapolis Center
Thu 04:33:23 PM 43.8536 -99.8667 94° East 498 573 37,000  Level Minneapolis Center
Thu 04:34:25 PM 43.8414 -99.6339 94° East 504 580 37,000  Level Minneapolis Center
Thu 04:35:27 PM 43.8303 -99.4447 95° East 498 573 37,000  Level Minneapolis Center
Thu 04:36:29 PM 43.8194 -99.2544 94° East 497 572 37,000  Level Minneapolis Center
Thu 04:37:31 PM 43.8086 -99.0642 94° East 497 572 37,000  Level Minneapolis Center
Thu 04:38:33 PM 43.7972 -98.8731 95° East 499 574 37,000  Level Minneapolis Center
Thu 04:39:35 PM 43.7833 -98.6492 95° East 497 572 37,000  Level Minneapolis Center
Thu 04:40:37 PM 43.7714 -98.4603 95° East 495 570 37,000  Level Minneapolis Center
Thu 04:41:39 PM 43.7586 -98.2694 95° East 498 573 37,000  Level Minneapolis Center
Thu 04:42:41 PM 43.7464 -98.0808 95° East 496 571 37,000  Level Minneapolis Center
Thu 04:43:44 PM 43.7331 -97.8931 96° East 493 567 37,000  Level Minneapolis Center
Thu 04:44:46 PM 43.7167 -97.6672 96° East 494 568 37,000  Level Minneapolis Center
Thu 04:45:48 PM 43.7036 -97.4789 95° East 494 568 37,000  Level Minneapolis Center
Thu 04:46:50 PM 43.6889 -97.2908 96° East 495 570 37,000  Level Minneapolis Center
Thu 04:47:52 PM 43.6750 -97.1036 96° East 493 567 37,000  Level Minneapolis Center
Thu 04:48:54 PM 43.6606 -96.9167 96° East 493 567 37,000  Level Minneapolis Center
Thu 04:49:56 PM 43.6428 -96.7322 98° East 491 565 37,000  Level Minneapolis Center
Thu 04:50:58 PM 43.6103 -96.5136 102° East 489 563 37,000  Level Minneapolis Center
Thu 04:52:00 PM 43.5831 -96.3311 102° East 489 563 37,000  Level Minneapolis Center
Thu 04:53:02 PM 43.5564 -96.1494 101° East 490 564 37,000  Level Minneapolis Center
Thu 04:54:04 PM 43.5286 -95.9692 102° East 487 560 37,000  Level Minneapolis Center
Thu 04:55:06 PM 43.4956 -95.7506 102° East 489 563 37,000  Level Minneapolis Center
Thu 04:56:09 PM 43.4675 -95.5706 102° East 487 560 37,000  Level Minneapolis Center
Thu 04:57:11 PM 43.4386 -95.3903 102° East 486 559 37,000  Level Minneapolis Center
Thu 04:58:13 PM 43.4111 -95.2092 102° East 486 559 37,000  Level Minneapolis Center
Thu 04:59:15 PM 43.3819 -95.0283 102° East 486 559 37,000  Level Minneapolis Center
Thu 05:00:17 PM 43.3522 -94.8461 103° East 491 565 37,000  Level Minneapolis Center
Thu 05:01:19 PM 43.3244 -94.6256 100° East 489 563 37,000  Level Minneapolis Center
Thu 05:02:21 PM 43.3086 -94.4403 97° East 490 564 37,000  Level Minneapolis Center
Thu 05:03:23 PM 43.2889 -94.2553 98° East 492 566 37,000  Level Minneapolis Center
Thu 05:04:25 PM 43.2664 -94.0664 99° East 493 567 37,000  Level Minneapolis Center
Thu 05:05:27 PM 43.2486 -93.8817 97° East 493 567 37,000  Level Minneapolis Center
Thu 05:06:30 PM 43.2258 -93.7003 100° East 490 564 37,000  Level Minneapolis Center
Thu 05:07:32 PM 43.2006 -93.4803 99° East 491 565 37,000  Level Minneapolis Center
Thu 05:08:34 PM 43.1800 -93.2981 99° East 490 564 37,000 -145 Level Minneapolis Center
Thu 05:09:36 PM 43.1614 -93.1172 98° East 486 559 36,700 -581 Descending Minneapolis Center
Thu 05:10:38 PM 43.1386 -92.9383 100° East 483 556 35,800 -823 Descending Minneapolis Center
Thu 05:11:40 PM 43.1175 -92.7581 99° East 483 556 35,000 -387 Descending Minneapolis Center
Thu 05:12:42 PM 43.0917 -92.5450 99° East 478 550 35,000  Level Minneapolis Center
Thu 05:13:44 PM 43.0703 -92.3681 99° East 477 549 35,000 -321 Level Minneapolis Center
Thu 05:14:34 PM 43.0514 -92.2261 100° East 477 549 34,400 -857 Descending Chicago Center
Thu 05:15:36 PM 43.0289 -92.0447 100° East 485 558 33,400 -968 Descending Chicago Center
Thu 05:16:38 PM 43.0061 -91.8617 100° East 489 563 32,400 -968 Descending Chicago Center
Thu 05:17:40 PM 42.9842 -91.6758 99° East 492 566 31,400 -677 Descending Chicago Center
Thu 05:18:42 PM 42.9594 -91.4564 99° East 483 556 31,000 -194 Descending Chicago Center
Thu 05:19:44 PM 42.9464 -91.2925 96° East 438 504 31,000  Level Chicago Center
Thu 05:20:46 PM 42.9322 -91.1328 97° East 426 490 31,000 -290 Level Chicago Center
Thu 05:21:48 PM 42.9189 -90.9719 96° East 429 494 30,400 -768 Descending Chicago Center
Thu 05:22:51 PM 42.9047 -90.8142 97° East 425 489 29,400 -960 Descending Chicago Center
Thu 05:23:53 PM 42.8917 -90.6558 96° East 426 490 28,400 -1,065 Descending Chicago Center
Thu 05:24:55 PM 42.8725 -90.4506 97° East 458 527 27,200 -1,065 Descending Chicago Center
Thu 05:25:57 PM 42.8569 -90.2869 97° East 443 510 26,200 -968 Descending Chicago Center
Thu 05:26:59 PM 42.8425 -90.1247 97° East 437 503 25,200 -968 Descending Chicago Center
Thu 05:28:01 PM 42.8044 -89.9658 108° East 447 514 24,200 -1,306 Descending Chicago Center
Thu 05:29:03 PM 42.7525 -89.7847 111° Southeast 439 505 22,500 -1,597 Descending Chicago Center
Thu 05:30:05 PM 42.7114 -89.6369 111° Southeast 420 483 20,900 -1,548 Descending Chicago Center
Thu 05:31:07 PM 42.6722 -89.4981 111° Southeast 399 459 19,300 -1,548 Descending Chicago Center
Thu 05:32:09 PM 42.6333 -89.3644 112° Southeast 384 442 17,700 -1,584 Descending Chicago Center
Thu 05:33:12 PM 42.5872 -89.2094 112° Southeast 380 437 16,000 -1,296 Descending Chicago Center
Thu 05:34:14 PM 42.5508 -89.0842 111° Southeast 361 415 15,000 -919 Descending Chicago Center
Thu 05:35:16 PM 42.5158 -88.9658 112° Southeast 340 391 14,100 -1,065 Descending Chicago Center
Thu 05:36:18 PM 42.4814 -88.8556 113° Southeast 322 371 12,800 -1,258 Descending Chicago Center
Thu 05:37:20 PM 42.4486 -88.7453 112° Southeast 316 364 11,500 -1,355 Descending Chicago Center
Thu 05:38:22 PM 42.4114 -88.6208 112° Southeast 308 354 10,000 -1,161 Descending Chicago Center
Thu 05:39:24 PM 42.3778 -88.5136 113° Southeast 307 353 9,100 -774 Descending Chicago Center
Thu 05:40:26 PM 42.3333 -88.4203 123° Southeast 295 339 8,400 -823 Descending Chicago Center
Thu 05:41:28 PM 42.2922 -88.3319 122° Southeast 295 339 7,400 -1,065 Descending Chicago Center
Thu 05:42:30 PM 42.2400 -88.2269 124° Southeast 285 328 6,200 -1,008 Descending Chicago Center
Thu 05:43:33 PM 42.1861 -88.1558 136° Southeast 277 319 5,300 -816 Descending Chicago Center
Thu 05:44:35 PM 42.1322 -88.0944 140° Southeast 261 300 4,500 -1,109 Descending Chicago Center
Thu 05:45:32 PM 42.0833 -88.0333 137° Southeast 211 243 3,100 -871 Descending Chicago TRACON
Thu 05:47:41 PM 42.0139 -87.9567 141° Southeast 189 217 1,800 -605 Descending Chicago Center
Thu 05:49:00 PM 41.9817 -87.9067 143° Southeast  Level Estimated
Thu 05:56:00 PM 41.9817 -87.9067 143° Southeast  Level Estimated

Login

Don't have an account? Register now (free) for customized features, flight alerts, and more!